sensor_id;sensor_type;location;lat;lon;timestamp;pressure;altitude;pressure_sealevel;temperature;humidity
60061;BME280;45933;51.336;12.612;2024-02-26T00:01:25;98614.81;;;6.10;54.57
60061;BME280;45933;51.336;12.612;2024-02-26T00:03:50;98607.97;;;6.08;54.32
60061;BME280;45933;51.336;12.612;2024-02-26T00:06:15;98607.97;;;6.06;54.60
60061;BME280;45933;51.336;12.612;2024-02-26T00:08:41;98606.25;;;6.05;54.62
60061;BME280;45933;51.336;12.612;2024-02-26T00:11:06;98602.00;;;6.02;54.28
60061;BME280;45933;51.336;12.612;2024-02-26T00:13:31;98601.13;;;6.00;54.66
60061;BME280;45933;51.336;12.612;2024-02-26T00:15:57;98596.84;;;5.99;54.73
60061;BME280;45933;51.336;12.612;2024-02-26T00:18:22;98604.66;;;5.96;54.39
60061;BME280;45933;51.336;12.612;2024-02-26T00:20:47;98601.19;;;5.94;54.49
60061;BME280;45933;51.336;12.612;2024-02-26T00:23:15;98597.75;;;5.94;54.73
60061;BME280;45933;51.336;12.612;2024-02-26T00:25:40;98596.91;;;5.90;54.25
60061;BME280;45933;51.336;12.612;2024-02-26T00:28:08;98593.50;;;5.87;54.54
60061;BME280;45933;51.336;12.612;2024-02-26T00:30:33;98589.16;;;5.89;54.93
60061;BME280;45933;51.336;12.612;2024-02-26T00:32:58;98584.91;;;5.86;54.70
60061;BME280;45933;51.336;12.612;2024-02-26T00:35:24;98589.22;;;5.84;55.21
60061;BME280;45933;51.336;12.612;2024-02-26T00:37:49;98581.44;;;5.84;55.30
60061;BME280;45933;51.336;12.612;2024-02-26T00:40:14;98582.34;;;5.82;55.05
60061;BME280;45933;51.336;12.612;2024-02-26T00:42:40;98588.41;;;5.81;56.16
60061;BME280;45933;51.336;12.612;2024-02-26T00:45:10;98584.97;;;5.80;55.25
60061;BME280;45933;51.336;12.612;2024-02-26T00:47:36;98584.97;;;5.80;54.86
60061;BME280;45933;51.336;12.612;2024-02-26T00:53:10;98575.47;;;5.79;54.92
60061;BME280;45933;51.336;12.612;2024-02-26T00:55:35;98574.66;;;5.75;55.30
60061;BME280;45933;51.336;12.612;2024-02-26T00:58:01;98564.31;;;5.74;54.92
60061;BME280;45933;51.336;12.612;2024-02-26T01:00:26;98562.63;;;5.71;54.72
60061;BME280;45933;51.336;12.612;2024-02-26T01:02:51;98555.75;;;5.70;55.35
60061;BME280;45933;51.336;12.612;2024-02-26T01:05:16;98560.09;;;5.67;55.12
60061;BME280;45933;51.336;12.612;2024-02-26T01:07:42;98556.66;;;5.66;55.23
60061;BME280;45933;51.336;12.612;2024-02-26T01:10:07;98559.25;;;5.63;54.69
60061;BME280;45933;51.336;12.612;2024-02-26T01:12:34;98554.09;;;5.62;55.54
60061;BME280;45933;51.336;12.612;2024-02-26T01:15:00;98556.72;;;5.60;55.41
60061;BME280;45933;51.336;12.612;2024-02-26T01:17:25;98551.56;;;5.57;55.51
60061;BME280;45933;51.336;12.612;2024-02-26T01:19:50;98552.41;;;5.58;55.13
60061;BME280;45933;51.336;12.612;2024-02-26T01:22:16;98551.56;;;5.57;55.73
60061;BME280;45933;51.336;12.612;2024-02-26T01:24:41;98552.44;;;5.56;55.68
60061;BME280;45933;51.336;12.612;2024-02-26T01:27:06;98551.59;;;5.56;55.85
60061;BME280;45933;51.336;12.612;2024-02-26T01:29:35;98542.94;;;5.58;56.03
60061;BME280;45933;51.336;12.612;2024-02-26T01:32:01;98544.72;;;5.55;56.10
60061;BME280;45933;51.336;12.612;2024-02-26T01:34:26;98530.94;;;5.54;56.10
60061;BME280;45933;51.336;12.612;2024-02-26T01:36:51;98535.25;;;5.52;56.52
60061;BME280;45933;51.336;12.612;2024-02-26T01:39:17;98524.06;;;5.51;56.43
60061;BME280;45933;51.336;12.612;2024-02-26T01:41:42;98528.38;;;5.51;56.14
60061;BME280;45933;51.336;12.612;2024-02-26T01:44:07;98526.66;;;5.50;56.27
60061;BME280;45933;51.336;12.612;2024-02-26T01:46:34;98529.25;;;5.47;56.37
60061;BME280;45933;51.336;12.612;2024-02-26T01:49:01;98521.56;;;5.42;56.24
60061;BME280;45933;51.336;12.612;2024-02-26T01:51:28;98516.38;;;5.42;56.31
60061;BME280;45933;51.336;12.612;2024-02-26T01:53:54;98512.09;;;5.41;56.17
60061;BME280;45933;51.336;12.612;2024-02-26T01:56:21;98506.94;;;5.40;56.47
60061;BME280;45933;51.336;12.612;2024-02-26T01:58:47;98505.22;;;5.37;56.26
60061;BME280;45933;51.336;12.612;2024-02-26T02:01:15;98499.25;;;5.34;56.81
60061;BME280;45933;51.336;12.612;2024-02-26T02:03:42;98513.91;;;5.33;56.76
60061;BME280;45933;51.336;12.612;2024-02-26T02:06:08;98503.59;;;5.30;56.77
60061;BME280;45933;51.336;12.612;2024-02-26T02:08:34;98495.88;;;5.27;57.07
60061;BME280;45933;51.336;12.612;2024-02-26T02:11:00;98499.38;;;5.21;57.26
60061;BME280;45933;51.336;12.612;2024-02-26T02:13:26;98493.38;;;5.19;57.78
60061;BME280;45933;51.336;12.612;2024-02-26T02:15:51;98492.53;;;5.17;57.77
60061;BME280;45933;51.336;12.612;2024-02-26T02:18:17;98493.41;;;5.15;57.59
60061;BME280;45933;51.336;12.612;2024-02-26T02:20:42;98497.75;;;5.13;57.67
60061;BME280;45933;51.336;12.612;2024-02-26T02:23:08;98498.63;;;5.12;58.08
60061;BME280;45933;51.336;12.612;2024-02-26T02:25:33;98490.00;;;5.10;57.60
60061;BME280;45933;51.336;12.612;2024-02-26T02:27:59;98496.91;;;5.08;58.23
60061;BME280;45933;51.336;12.612;2024-02-26T02:30:27;98494.34;;;5.08;58.36
60061;BME280;45933;51.336;12.612;2024-02-26T02:32:53;98497.81;;;5.04;58.45
60061;BME280;45933;51.336;12.612;2024-02-26T02:35:18;98508.16;;;5.04;58.20
60061;BME280;45933;51.336;12.612;2024-02-26T02:37:44;98506.44;;;5.03;58.17
60061;BME280;45933;51.336;12.612;2024-02-26T02:40:09;98507.31;;;5.02;58.53
60061;BME280;45933;51.336;12.612;2024-02-26T02:42:35;98501.28;;;5.01;58.39
60061;BME280;45933;51.336;12.612;2024-02-26T02:45:00;98508.19;;;4.99;58.66
60061;BME280;45933;51.336;12.612;2024-02-26T02:47:25;98503.06;;;4.96;59.19
60061;BME280;45933;51.336;12.612;2024-02-26T02:49:51;98505.63;;;4.94;59.01
60061;BME280;45933;51.336;12.612;2024-02-26T02:52:16;98507.38;;;4.92;59.22
60061;BME280;45933;51.336;12.612;2024-02-26T02:54:41;98514.28;;;4.89;59.98
60061;BME280;45933;51.336;12.612;2024-02-26T02:57:08;98516.06;;;4.85;60.06
60061;BME280;45933;51.336;12.612;2024-02-26T02:59:33;98522.94;;;4.86;59.25
60061;BME280;45933;51.336;12.612;2024-02-26T03:01:59;98525.50;;;4.85;59.29
60061;BME280;45933;51.336;12.612;2024-02-26T03:04:24;98525.50;;;4.85;59.78
60061;BME280;45933;51.336;12.612;2024-02-26T03:06:49;98524.63;;;4.84;59.63
60061;BME280;45933;51.336;12.612;2024-02-26T03:09:15;98535.81;;;4.85;60.00
60061;BME280;45933;51.336;12.612;2024-02-26T03:11:40;98535.81;;;4.85;59.67
60061;BME280;45933;51.336;12.612;2024-02-26T03:14:05;98533.25;;;4.85;60.15
60061;BME280;45933;51.336;12.612;2024-02-26T03:16:31;98540.16;;;4.86;59.82
60061;BME280;45933;51.336;12.612;2024-02-26T03:18:57;98539.28;;;4.87;60.04
60061;BME280;45933;51.336;12.612;2024-02-26T03:21:25;98535.81;;;4.88;59.94
60061;BME280;45933;51.336;12.612;2024-02-26T03:23:50;98533.22;;;4.88;60.15
60061;BME280;45933;51.336;12.612;2024-02-26T03:26:15;98532.38;;;4.90;60.05
60061;BME280;45933;51.336;12.612;2024-02-26T03:28:41;98534.94;;;4.90;59.89
60061;BME280;45933;51.336;12.612;2024-02-26T03:31:06;98536.66;;;4.90;60.23
60061;BME280;45933;51.336;12.612;2024-02-26T03:33:31;98540.97;;;4.91;60.24
60061;BME280;45933;51.336;12.612;2024-02-26T03:35:56;98540.97;;;4.91;60.24
60061;BME280;45933;51.336;12.612;2024-02-26T03:38:22;98539.22;;;4.90;60.18
60061;BME280;45933;51.336;12.612;2024-02-26T03:40:47;98547.84;;;4.92;60.30
60061;BME280;45933;51.336;12.612;2024-02-26T03:43:12;98545.25;;;4.92;60.17
60061;BME280;45933;51.336;12.612;2024-02-26T03:45:38;98548.69;;;4.92;59.75
60061;BME280;45933;51.336;12.612;2024-02-26T03:48:03;98541.81;;;4.93;59.91
60061;BME280;45933;51.336;12.612;2024-02-26T03:50:29;98545.25;;;4.93;59.79
60061;BME280;45933;51.336;12.612;2024-02-26T03:52:54;98547.00;;;4.91;59.71
60061;BME280;45933;51.336;12.612;2024-02-26T03:55:19;98547.84;;;4.92;59.70
60061;BME280;45933;51.336;12.612;2024-02-26T03:57:49;98548.72;;;4.91;59.52
60061;BME280;45933;51.336;12.612;2024-02-26T04:00:15;98556.44;;;4.89;59.09
60061;BME280;45933;51.336;12.612;2024-02-26T04:02:40;98553.03;;;4.87;59.06
60061;BME280;45933;51.336;12.612;2024-02-26T04:05:09;98549.56;;;4.88;59.36
60061;BME280;45933;51.336;12.612;2024-02-26T04:07:35;98546.16;;;4.85;59.34
60061;BME280;45933;51.336;12.612;2024-02-26T04:10:00;98556.53;;;4.82;59.31
60061;BME280;45933;51.336;12.612;2024-02-26T04:12:28;98556.53;;;4.80;59.36
60061;BME280;45933;51.336;12.612;2024-02-26T04:14:54;98553.09;;;4.78;59.38
60061;BME280;45933;51.336;12.612;2024-02-26T04:17:19;98550.53;;;4.75;59.61
60061;BME280;45933;51.336;12.612;2024-02-26T04:19:44;98559.16;;;4.76;59.58
60061;BME280;45933;51.336;12.612;2024-02-26T04:22:09;98562.59;;;4.73;59.70
60061;BME280;45933;51.336;12.612;2024-02-26T04:24:36;98561.75;;;4.71;59.81
60061;BME280;45933;51.336;12.612;2024-02-26T04:27:01;98562.59;;;4.68;59.50
60061;BME280;45933;51.336;12.612;2024-02-26T04:29:26;98554.03;;;4.66;59.69
60061;BME280;45933;51.336;12.612;2024-02-26T04:31:51;98559.22;;;4.65;60.24
60061;BME280;45933;51.336;12.612;2024-02-26T04:34:17;98563.50;;;4.63;59.70
60061;BME280;45933;51.336;12.612;2024-02-26T04:36:42;98559.22;;;4.62;59.76
60061;BME280;45933;51.336;12.612;2024-02-26T04:39:08;98554.06;;;4.60;59.93
60061;BME280;45933;51.336;12.612;2024-02-26T04:41:33;98560.97;;;4.60;59.96
60061;BME280;45933;51.336;12.612;2024-02-26T04:43:58;98554.94;;;4.59;59.79
60061;BME280;45933;51.336;12.612;2024-02-26T04:46:23;98554.94;;;4.58;60.06
60061;BME280;45933;51.336;12.612;2024-02-26T04:48:49;98543.78;;;4.56;60.09
60061;BME280;45933;51.336;12.612;2024-02-26T04:51:14;98549.78;;;4.56;60.16
60061;BME280;45933;51.336;12.612;2024-02-26T04:53:39;98551.53;;;4.56;60.25
60061;BME280;45933;51.336;12.612;2024-02-26T04:56:05;98550.69;;;4.54;60.76
60061;BME280;45933;51.336;12.612;2024-02-26T04:58:30;98554.09;;;4.53;60.55
60061;BME280;45933;51.336;12.612;2024-02-26T05:00:56;98559.25;;;4.53;60.82
60061;BME280;45933;51.336;12.612;2024-02-26T05:03:21;98554.97;;;4.53;60.85
60061;BME280;45933;51.336;12.612;2024-02-26T05:05:46;98565.31;;;4.50;61.09
60061;BME280;45933;51.336;12.612;2024-02-26T05:08:12;98548.97;;;4.50;60.95
60061;BME280;45933;51.336;12.612;2024-02-26T05:10:37;98558.44;;;4.49;61.12
60061;BME280;45933;51.336;12.612;2024-02-26T05:13:08;98571.34;;;4.47;61.00
60061;BME280;45933;51.336;12.612;2024-02-26T05:15:34;98566.19;;;4.46;61.01
60061;BME280;45933;51.336;12.612;2024-02-26T05:17:59;98568.75;;;4.47;61.17
60061;BME280;45933;51.336;12.612;2024-02-26T05:20:25;98579.06;;;4.47;61.23
60061;BME280;45933;51.336;12.612;2024-02-26T05:22:50;98577.34;;;4.48;61.00
60061;BME280;45933;51.336;12.612;2024-02-26T05:25:16;98579.06;;;4.47;61.02
60061;BME280;45933;51.336;12.612;2024-02-26T05:27:41;98576.50;;;4.47;60.83
60061;BME280;45933;51.336;12.612;2024-02-26T05:30:07;98580.81;;;4.49;61.02
60061;BME280;45933;51.336;12.612;2024-02-26T05:32:32;98582.53;;;4.46;60.58
60061;BME280;45933;51.336;12.612;2024-02-26T05:34:58;98585.09;;;4.46;61.17
60061;BME280;45933;51.336;12.612;2024-02-26T05:37:23;98585.97;;;4.45;61.04
60061;BME280;45933;51.336;12.612;2024-02-26T05:39:48;98580.81;;;4.45;61.09
60061;BME280;45933;51.336;12.612;2024-02-26T05:42:13;98578.22;;;4.45;61.13
60061;BME280;45933;51.336;12.612;2024-02-26T05:44:39;98565.34;;;4.44;61.11
60061;BME280;45933;51.336;12.612;2024-02-26T05:47:04;98571.38;;;4.43;61.39
60061;BME280;45933;51.336;12.612;2024-02-26T05:49:29;98575.69;;;4.41;61.54
60061;BME280;45933;51.336;12.612;2024-02-26T05:51:55;98581.69;;;4.41;61.56
60061;BME280;45933;51.336;12.612;2024-02-26T05:54:20;98581.72;;;4.40;61.75
60061;BME280;45933;51.336;12.612;2024-02-26T05:56:45;98579.13;;;4.40;61.80
60061;BME280;45933;51.336;12.612;2024-02-26T05:59:11;98571.41;;;4.38;61.94
60061;BME280;45933;51.336;12.612;2024-02-26T06:01:36;98576.53;;;4.40;61.83
60061;BME280;45933;51.336;12.612;2024-02-26T06:04:01;98576.53;;;4.40;61.71
60061;BME280;45933;51.336;12.612;2024-02-26T06:06:26;98578.28;;;4.39;61.92
60061;BME280;45933;51.336;12.612;2024-02-26T06:08:52;98572.25;;;4.39;62.04
60061;BME280;45933;51.336;12.612;2024-02-26T06:11:17;98557.63;;;4.39;62.04
60061;BME280;45933;51.336;12.612;2024-02-26T06:13:43;98566.22;;;4.40;62.45
60061;BME280;45933;51.336;12.612;2024-02-26T06:16:08;98568.78;;;4.41;62.15
60061;BME280;45933;51.336;12.612;2024-02-26T06:18:33;98574.81;;;4.42;62.71
60061;BME280;45933;51.336;12.612;2024-02-26T06:20:59;98577.38;;;4.42;62.93
60061;BME280;45933;51.336;12.612;2024-02-26T06:23:25;98575.66;;;4.42;63.17
60061;BME280;45933;51.336;12.612;2024-02-26T06:25:51;98577.38;;;4.45;63.10
60061;BME280;45933;51.336;12.612;2024-02-26T06:28:17;98580.81;;;4.49;62.93
60061;BME280;45933;51.336;12.612;2024-02-26T06:30:42;98588.53;;;4.50;62.39
60061;BME280;45933;51.336;12.612;2024-02-26T06:33:07;98576.47;;;4.52;62.61
60061;BME280;45933;51.336;12.612;2024-02-26T06:35:33;98574.75;;;4.53;62.93
60061;BME280;45933;51.336;12.612;2024-02-26T06:37:58;98579.06;;;4.55;62.54
60061;BME280;45933;51.336;12.612;2024-02-26T06:40:23;98583.31;;;4.58;62.96
60061;BME280;45933;51.336;12.612;2024-02-26T06:42:48;98588.50;;;4.59;62.94
60061;BME280;45933;51.336;12.612;2024-02-26T06:45:15;98589.34;;;4.61;62.72
60061;BME280;45933;51.336;12.612;2024-02-26T06:47:40;98595.34;;;4.63;62.96
60061;BME280;45933;51.336;12.612;2024-02-26T06:50:06;98599.66;;;4.64;63.26
60061;BME280;45933;51.336;12.612;2024-02-26T06:52:31;98597.03;;;4.67;63.19
60061;BME280;45933;51.336;12.612;2024-02-26T06:54:56;98601.34;;;4.70;62.71
60061;BME280;45933;51.336;12.612;2024-02-26T06:57:22;98598.75;;;4.71;63.02
60061;BME280;45933;51.336;12.612;2024-02-26T06:59:47;98604.75;;;4.72;63.12
60061;BME280;45933;51.336;12.612;2024-02-26T07:02:15;98608.16;;;4.80;62.69
60061;BME280;45933;51.336;12.612;2024-02-26T07:04:44;98610.75;;;4.79;63.09
60061;BME280;45933;51.336;12.612;2024-02-26T07:07:09;98617.63;;;4.81;63.59
60061;BME280;45933;51.336;12.612;2024-02-26T07:09:35;98611.59;;;4.85;64.10
60061;BME280;45933;51.336;12.612;2024-02-26T07:12:01;98610.69;;;4.91;63.54
60061;BME280;45933;51.336;12.612;2024-02-26T07:14:26;98615.81;;;4.97;63.46
60061;BME280;45933;51.336;12.612;2024-02-26T07:16:51;98620.06;;;5.03;63.61
60061;BME280;45933;51.336;12.612;2024-02-26T07:19:17;98618.31;;;5.08;64.01
60061;BME280;45933;51.336;12.612;2024-02-26T07:21:42;98606.19;;;5.14;63.89
60061;BME280;45933;51.336;12.612;2024-02-26T07:24:08;98613.91;;;5.19;64.35
60061;BME280;45933;51.336;12.612;2024-02-26T07:26:33;98615.59;;;5.28;63.61
60061;BME280;45933;51.336;12.612;2024-02-26T07:29:01;98612.09;;;5.32;64.05
60061;BME280;45933;51.336;12.612;2024-02-26T07:31:26;98610.31;;;5.37;64.39
60061;BME280;45933;51.336;12.612;2024-02-26T07:33:52;98609.44;;;5.44;64.18
60061;BME280;45933;51.336;12.612;2024-02-26T07:36:17;98607.63;;;5.52;63.83
60061;BME280;45933;51.336;12.612;2024-02-26T07:38:42;98610.13;;;5.58;64.30
60061;BME280;45933;51.336;12.612;2024-02-26T07:41:08;98613.56;;;5.65;64.05
60061;BME280;45933;51.336;12.612;2024-02-26T07:43:33;98603.97;;;5.73;64.16
60061;BME280;45933;51.336;12.612;2024-02-26T07:45:58;98614.25;;;5.82;64.20
60061;BME280;45933;51.336;12.612;2024-02-26T07:48:24;98616.78;;;5.91;63.60
60061;BME280;45933;51.336;12.612;2024-02-26T07:50:49;98614.19;;;5.91;64.15
60061;BME280;45933;51.336;12.612;2024-02-26T07:53:15;98610.59;;;6.03;64.36
60061;BME280;45933;51.336;12.612;2024-02-26T07:55:40;98614.84;;;6.12;63.53
60061;BME280;45933;51.336;12.612;2024-02-26T07:58:06;98618.16;;;6.23;63.47
60061;BME280;45933;51.336;12.612;2024-02-26T08:00:31;98621.50;;;6.31;63.57
60061;BME280;45933;51.336;12.612;2024-02-26T08:02:57;98621.34;;;6.42;63.26
60061;BME280;45933;51.336;12.612;2024-02-26T08:05:22;98621.22;;;6.52;63.29
60061;BME280;45933;51.336;12.612;2024-02-26T08:07:50;98625.38;;;6.64;63.17
60061;BME280;45933;51.336;12.612;2024-02-26T08:10:15;98626.97;;;6.76;62.82
60061;BME280;45933;51.336;12.612;2024-02-26T08:12:41;98635.41;;;6.90;63.09
60061;BME280;45933;51.336;12.612;2024-02-26T08:15:07;98631.78;;;7.03;62.72
60061;BME280;45933;51.336;12.612;2024-02-26T08:17:32;98631.56;;;7.17;62.87
60061;BME280;45933;51.336;12.612;2024-02-26T08:19:59;98623.53;;;7.32;62.48
60061;BME280;45933;51.336;12.612;2024-02-26T08:22:24;98624.16;;;7.48;62.21
60061;BME280;45933;51.336;12.612;2024-02-26T08:24:49;98628.19;;;7.66;62.38
60061;BME280;45933;51.336;12.612;2024-02-26T08:27:14;98626.97;;;7.85;62.30
60061;BME280;45933;51.336;12.612;2024-02-26T08:29:40;98636.88;;;8.11;61.98
60061;BME280;45933;51.336;12.612;2024-02-26T08:32:05;98631.97;;;8.43;61.90
60061;BME280;45933;51.336;12.612;2024-02-26T08:34:32;98626.97;;;8.77;60.96
60061;BME280;45933;51.336;12.612;2024-02-26T08:36:57;98627.84;;;9.14;60.44
60061;BME280;45933;51.336;12.612;2024-02-26T08:39:22;98622.56;;;9.53;60.33
60061;BME280;45933;51.336;12.612;2024-02-26T08:41:47;98631.91;;;9.96;58.72
60061;BME280;45933;51.336;12.612;2024-02-26T08:44:13;98628.91;;;10.44;59.15
60061;BME280;45933;51.336;12.612;2024-02-26T08:46:38;98625.47;;;11.01;59.15
60061;BME280;45933;51.336;12.612;2024-02-26T08:49:04;98623.75;;;11.56;58.06
60061;BME280;45933;51.336;12.612;2024-02-26T08:51:29;98629.78;;;12.10;56.28
60061;BME280;45933;51.336;12.612;2024-02-26T08:53:54;98624.22;;;12.67;54.37
60061;BME280;45933;51.336;12.612;2024-02-26T08:56:20;98622.16;;;13.21;53.76
60061;BME280;45933;51.336;12.612;2024-02-26T08:58:46;98627.22;;;13.69;51.34
60061;BME280;45933;51.336;12.612;2024-02-26T09:01:16;98629.59;;;14.16;50.54
60061;BME280;45933;51.336;12.612;2024-02-26T09:03:42;98624.06;;;14.63;50.63
60061;BME280;45933;51.336;12.612;2024-02-26T09:06:07;98626.41;;;15.07;50.28
60061;BME280;45933;51.336;12.612;2024-02-26T09:08:32;98623.59;;;15.48;49.47
60061;BME280;45933;51.336;12.612;2024-02-26T09:10:58;98625.28;;;15.85;48.91
60061;BME280;45933;51.336;12.612;2024-02-26T09:13:24;98624.72;;;16.30;48.12
60061;BME280;45933;51.336;12.612;2024-02-26T09:15:49;98610.38;;;16.69;47.47
60061;BME280;45933;51.336;12.612;2024-02-26T09:18:14;98614.34;;;17.09;47.04
60061;BME280;45933;51.336;12.612;2024-02-26T09:20:40;98616.88;;;17.42;44.83
60061;BME280;45933;51.336;12.612;2024-02-26T09:23:06;98617.53;;;17.77;44.26
60061;BME280;45933;51.336;12.612;2024-02-26T09:25:31;98614.59;;;18.12;44.00
60061;BME280;45933;51.336;12.612;2024-02-26T09:27:58;98604.25;;;18.38;42.09
60061;BME280;45933;51.336;12.612;2024-02-26T09:30:23;98600.69;;;18.67;42.09
60061;BME280;45933;51.336;12.612;2024-02-26T09:32:49;98599.28;;;18.90;41.32
60061;BME280;45933;51.336;12.612;2024-02-26T09:35:14;98602.50;;;19.22;41.36
60061;BME280;45933;51.336;12.612;2024-02-26T09:37:39;98598.91;;;19.23;38.19
60061;BME280;45933;51.336;12.612;2024-02-26T09:40:05;98604.72;;;19.55;39.49
60061;BME280;45933;51.336;12.612;2024-02-26T09:42:31;98607.09;;;19.60;38.62
60061;BME280;45933;51.336;12.612;2024-02-26T09:44:59;98606.53;;;19.55;37.54
60061;BME280;45933;51.336;12.612;2024-02-26T09:47:28;98606.50;;;19.42;36.94
60061;BME280;45933;51.336;12.612;2024-02-26T09:49:55;98606.97;;;19.34;38.35
60061;BME280;45933;51.336;12.612;2024-02-26T09:52:21;98622.34;;;19.15;38.41
60061;BME280;45933;51.336;12.612;2024-02-26T09:54:48;98621.78;;;19.10;39.44
60061;BME280;45933;51.336;12.612;2024-02-26T09:57:15;98618.84;;;19.15;39.28
60061;BME280;45933;51.336;12.612;2024-02-26T09:59:51;98619.00;;;19.26;38.40
60061;BME280;45933;51.336;12.612;2024-02-26T10:02:19;98620.84;;;19.38;38.50
60061;BME280;45933;51.336;12.612;2024-02-26T10:04:46;98612.66;;;19.55;37.44
60061;BME280;45933;51.336;12.612;2024-02-26T10:07:13;98614.16;;;19.87;38.45
60061;BME280;45933;51.336;12.612;2024-02-26T10:09:39;98616.84;;;20.12;37.72
60061;BME280;45933;51.336;12.612;2024-02-26T10:12:04;98617.19;;;20.33;37.34
60061;BME280;45933;51.336;12.612;2024-02-26T10:14:30;98609.59;;;20.54;36.56
60061;BME280;45933;51.336;12.612;2024-02-26T10:16:56;98610.53;;;20.66;35.94
60061;BME280;45933;51.336;12.612;2024-02-26T10:19:29;98607.56;;;20.83;36.28
60061;BME280;45933;51.336;12.612;2024-02-26T10:21:58;98613.25;;;20.77;33.49
60061;BME280;45933;51.336;12.612;2024-02-26T10:24:25;98605.13;;;20.80;34.14
60061;BME280;45933;51.336;12.612;2024-02-26T10:26:51;98607.97;;;20.89;34.20
60061;BME280;45933;51.336;12.612;2024-02-26T10:29:18;98615.34;;;20.97;34.13
60061;BME280;45933;51.336;12.612;2024-02-26T10:31:44;98609.00;;;21.00;34.11
60061;BME280;45933;51.336;12.612;2024-02-26T10:34:10;98613.53;;;20.98;34.28
60061;BME280;45933;51.336;12.612;2024-02-26T10:36:35;98613.09;;;21.04;34.51
60061;BME280;45933;51.336;12.612;2024-02-26T10:39:04;98621.41;;;20.99;33.66
60061;BME280;45933;51.336;12.612;2024-02-26T10:41:30;98619.84;;;20.84;32.84
60061;BME280;45933;51.336;12.612;2024-02-26T10:43:55;98627.34;;;20.77;33.29
60061;BME280;45933;51.336;12.612;2024-02-26T10:46:20;98635.31;;;20.65;33.37
60061;BME280;45933;51.336;12.612;2024-02-26T10:48:50;98636.91;;;20.54;33.41
60061;BME280;45933;51.336;12.612;2024-02-26T10:51:27;98635.50;;;20.36;34.09
60061;BME280;45933;51.336;12.612;2024-02-26T10:53:56;98638.13;;;20.23;34.44
60061;BME280;45933;51.336;12.612;2024-02-26T10:56:28;98639.09;;;20.09;35.19
60061;BME280;45933;51.336;12.612;2024-02-26T10:58:55;98635.44;;;19.98;35.29
60061;BME280;45933;51.336;12.612;2024-02-26T11:01:21;98636.16;;;19.87;35.92
60061;BME280;45933;51.336;12.612;2024-02-26T11:03:52;98639.50;;;19.76;35.29
60061;BME280;45933;51.336;12.612;2024-02-26T11:06:21;98633.63;;;19.58;35.94
60061;BME280;45933;51.336;12.612;2024-02-26T11:08:50;98631.03;;;19.44;36.07
60061;BME280;45933;51.336;12.612;2024-02-26T11:11:17;98636.94;;;19.21;36.30
60061;BME280;45933;51.336;12.612;2024-02-26T11:13:44;98642.47;;;19.03;36.23
60061;BME280;45933;51.336;12.612;2024-02-26T11:16:13;98653.88;;;18.90;37.19
60061;BME280;45933;51.336;12.612;2024-02-26T11:18:39;98644.63;;;18.68;37.27
60061;BME280;45933;51.336;12.612;2024-02-26T11:21:07;98642.81;;;18.54;37.03
60061;BME280;45933;51.336;12.612;2024-02-26T11:23:33;98643.94;;;18.36;37.46
60061;BME280;45933;51.336;12.612;2024-02-26T11:26:02;98643.72;;;18.25;38.06
60061;BME280;45933;51.336;12.612;2024-02-26T11:28:30;98645.22;;;18.15;38.72
60061;BME280;45933;51.336;12.612;2024-02-26T11:30:59;98642.44;;;18.02;38.35
60061;BME280;45933;51.336;12.612;2024-02-26T11:33:26;98638.91;;;17.87;38.49
60061;BME280;45933;51.336;12.612;2024-02-26T11:35:51;98640.31;;;17.79;38.91
60061;BME280;45933;51.336;12.612;2024-02-26T11:38:20;98637.22;;;17.70;39.01
60061;BME280;45933;51.336;12.612;2024-02-26T11:40:46;98627.66;;;17.54;39.37
60061;BME280;45933;51.336;12.612;2024-02-26T11:43:12;98626.13;;;17.49;39.43
60061;BME280;45933;51.336;12.612;2024-02-26T11:48:20;98623.00;;;17.43;40.17
60061;BME280;45933;51.336;12.612;2024-02-26T11:50:47;98630.50;;;17.35;40.15
60061;BME280;45933;51.336;12.612;2024-02-26T11:53:27;98622.41;;;17.38;39.94
60061;BME280;45933;51.336;12.612;2024-02-26T11:58:43;98621.81;;;17.33;40.12
60061;BME280;45933;51.336;12.612;2024-02-26T12:01:43;98616.97;;;17.41;40.08
60061;BME280;45933;51.336;12.612;2024-02-26T12:04:17;98620.97;;;17.32;39.92
60061;BME280;45933;51.336;12.612;2024-02-26T12:06:44;98623.44;;;17.35;40.68
60061;BME280;45933;51.336;12.612;2024-02-26T12:09:10;98622.59;;;17.35;40.76
60061;BME280;45933;51.336;12.612;2024-02-26T12:11:39;98628.59;;;17.37;40.14
60061;BME280;45933;51.336;12.612;2024-02-26T12:14:06;98632.34;;;17.33;40.16
60061;BME280;45933;51.336;12.612;2024-02-26T12:16:37;98640.00;;;17.37;40.26
60061;BME280;45933;51.336;12.612;2024-02-26T12:19:06;98634.47;;;17.26;39.99
60061;BME280;45933;51.336;12.612;2024-02-26T12:21:37;98632.09;;;17.21;39.89
60061;BME280;45933;51.336;12.612;2024-02-26T12:24:14;98630.81;;;17.13;39.91
60061;BME280;45933;51.336;12.612;2024-02-26T12:26:40;98629.13;;;16.96;39.71
60061;BME280;45933;51.336;12.612;2024-02-26T12:29:07;98636.75;;;16.85;39.27
60061;BME280;45933;51.336;12.612;2024-02-26T12:31:33;98639.41;;;16.67;39.83
60061;BME280;45933;51.336;12.612;2024-02-26T12:33:59;98640.13;;;16.54;39.53
60061;BME280;45933;51.336;12.612;2024-02-26T12:36:25;98635.44;;;16.43;39.61
60061;BME280;45933;51.336;12.612;2024-02-26T12:38:51;98646.59;;;16.31;39.83
60061;BME280;45933;51.336;12.612;2024-02-26T12:41:16;98648.56;;;16.10;40.14
60061;BME280;45933;51.336;12.612;2024-02-26T12:43:41;98650.66;;;16.03;40.54
60061;BME280;45933;51.336;12.612;2024-02-26T12:46:07;98644.06;;;15.94;40.92
60061;BME280;45933;51.336;12.612;2024-02-26T12:48:32;98648.91;;;15.85;40.50
60061;BME280;45933;51.336;12.612;2024-02-26T12:50:57;98652.00;;;15.76;40.87
60061;BME280;45933;51.336;12.612;2024-02-26T12:53:22;98659.63;;;15.63;40.94
60061;BME280;45933;51.336;12.612;2024-02-26T12:55:48;98656.34;;;15.58;40.97
60061;BME280;45933;51.336;12.612;2024-02-26T12:58:14;98658.56;;;15.48;41.39
60061;BME280;45933;51.336;12.612;2024-02-26T13:00:40;98667.72;;;15.39;42.02